Luceville, Canada
Current Conditions -  °F | °C
As of 5:13 AM on Saturday 22 Nov 2014 (Local Time) from CYYY Reporting Station
Snow Showers Snow Showers  
Wind Chill:   Ceiling: 1800
Heat Index: 18°   Visibility: 15mi
Dew Point: 10°   Wind: 13mph
Humidity: 73%   Direction: 240°WSW
Pressure: 30.08"   Gusts: 28mph
Location:  48.52°N, 68.33°W
Report Text: CYYY 221013Z 24011G24KT 210V270 15SM -SHSN BKN018 M08/M12 A3008 RMK SC7 SLP188
Loading
Personal Weather Stations






























Interactive Weather Map New forecast layout! Learn more

10-Day Weather Forecast

Advertisements
Track Severe Weather on mobile